FJI910 YSSY-NFFN
Flight info
| Callsign | FJI910 |
|---|---|
| Flight time | 4h 6m |
| Altitude | 41000 |
| Route | 3358S15112E DCT TESAT G595 SOTKI DCT 30S160E DCT UBLIN A579 TUTMU MIKAX2B |
| Aircraft | A359/H-SDE2E3GHIJ3J4J5LM1ORWXY/LB1D1 |
Departure
| Time | 2026-05-08 09:59 |
|---|---|
| Airport | Sydney Kingsford Smith International Airport (YSSY) |
Arrival
| Time | 2026-05-08 14:05 |
|---|---|
| Airport | Nadi International Airport (NFFN) |
| Time | Latitude | Longitude | Altitude | Speed | Heading |
|---|---|---|---|---|---|
| 2026-05-08 09:27 | -33.94013 | 151.16616 | 36 ft | 0 kts | 344° |
| 2026-05-08 09:47 | -33.94027 | 151.16620 | 36 ft | 4 kts | 348° |
| 2026-05-08 09:47 | -33.94054 | 151.16625 | 35 ft | 4 kts | 358° |
| 2026-05-08 09:47 | -33.94081 | 151.16624 | 35 ft | 4 kts | 11° |
| 2026-05-08 09:48 | -33.94105 | 151.16614 | 34 ft | 4 kts | 35° |
| 2026-05-08 09:48 | -33.94119 | 151.16596 | 34 ft | 1 kts | 74° |
| 2026-05-08 09:48 | -33.94119 | 151.16595 | 34 ft | 7 kts | 74° |
| 2026-05-08 09:52 | -33.94114 | 151.16616 | 35 ft | 8 kts | 73° |
| 2026-05-08 09:52 | -33.94092 | 151.16706 | 35 ft | 14 kts | 74° |
| 2026-05-08 09:53 | -33.94064 | 151.16831 | 36 ft | 17 kts | 75° |
| 2026-05-08 09:53 | -33.94015 | 151.17032 | 36 ft | 33 kts | 72° |
| 2026-05-08 09:53 | -33.93979 | 151.17189 | 36 ft | 12 kts | 74° |
| 2026-05-08 09:53 | -33.93926 | 151.17412 | 33 ft | 34 kts | 74° |
| 2026-05-08 09:54 | -33.93862 | 151.17682 | 36 ft | 34 kts | 73° |
| 2026-05-08 09:54 | -33.93794 | 151.17964 | 36 ft | 35 kts | 73° |
| 2026-05-08 09:54 | -33.93729 | 151.18246 | 36 ft | 36 kts | 74° |
| 2026-05-08 09:54 | -33.93659 | 151.18540 | 36 ft | 37 kts | 74° |
| 2026-05-08 09:55 | -33.93596 | 151.18813 | 36 ft | 16 kts | 79° |
| 2026-05-08 09:55 | -33.93609 | 151.18901 | 36 ft | 17 kts | 118° |
| 2026-05-08 09:55 | -33.93658 | 151.18944 | 34 ft | 0 kts | 159° |
| 2026-05-08 09:57 | -33.93698 | 151.18955 | 32 ft | 12 kts | 175° |
| 2026-05-08 09:58 | -33.93773 | 151.18902 | 32 ft | 14 kts | 243° |
| 2026-05-08 09:58 | -33.93802 | 151.18784 | 32 ft | 19 kts | 255° |
| 2026-05-08 09:58 | -33.93908 | 151.18338 | 36 ft | 95 kts | 254° |
| 2026-05-08 09:58 | -33.94155 | 151.17287 | 40 ft | 163 kts | 254° |
| 2026-05-08 09:59 | -33.94492 | 151.15919 | 686 ft | 175 kts | 253° |
| 2026-05-08 09:59 | -33.94857 | 151.14527 | 1533 ft | 172 kts | 252° |
| 2026-05-08 09:59 | -33.95208 | 151.13129 | 2061 ft | 179 kts | 254° |
| 2026-05-08 09:59 | -33.95287 | 151.11563 | 2311 ft | 201 kts | 283° |
| 2026-05-08 10:00 | -33.94588 | 151.10019 | 2561 ft | 224 kts | 308° |
| 2026-05-08 10:00 | -33.93507 | 151.08531 | 2912 ft | 247 kts | 312° |
| 2026-05-08 10:00 | -33.92313 | 151.06984 | 3698 ft | 255 kts | 313° |
| 2026-05-08 10:00 | -33.91089 | 151.05408 | 4581 ft | 260 kts | 313° |
| 2026-05-08 10:01 | -33.89843 | 151.03803 | 5464 ft | 264 kts | 313° |
| 2026-05-08 10:01 | -33.88578 | 151.02172 | 6369 ft | 268 kts | 313° |
| 2026-05-08 10:01 | -33.87195 | 151.00651 | 7287 ft | 273 kts | 328° |
| 2026-05-08 10:01 | -33.85403 | 150.99910 | 8229 ft | 277 kts | 354° |
| 2026-05-08 10:02 | -33.83496 | 151.00210 | 9157 ft | 281 kts | 20° |
| 2026-05-08 10:02 | -33.81749 | 151.01302 | 10097 ft | 287 kts | 31° |
| 2026-05-08 10:02 | -33.79999 | 151.02631 | 10608 ft | 308 kts | 32° |
| 2026-05-08 10:02 | -33.78131 | 151.04084 | 11011 ft | 332 kts | 32° |
| 2026-05-08 10:03 | -33.76213 | 151.05749 | 11566 ft | 347 kts | 41° |
| 2026-05-08 10:03 | -33.74655 | 151.07969 | 12353 ft | 354 kts | 59° |
| 2026-05-08 10:03 | -33.73814 | 151.10737 | 13172 ft | 360 kts | 82° |
| 2026-05-08 10:03 | -33.73769 | 151.13754 | 14008 ft | 364 kts | 95° |
| 2026-05-08 10:04 | -33.74125 | 151.16700 | 14762 ft | 369 kts | 101° |
| 2026-05-08 10:04 | -33.74703 | 151.19731 | 15546 ft | 373 kts | 104° |
| 2026-05-08 10:04 | -33.75361 | 151.22765 | 16310 ft | 378 kts | 105° |
| 2026-05-08 10:04 | -33.76025 | 151.25830 | 17051 ft | 382 kts | 104° |
| 2026-05-08 10:05 | -33.76671 | 151.28950 | 17801 ft | 386 kts | 103° |
| 2026-05-08 10:05 | -33.77289 | 151.32106 | 18550 ft | 390 kts | 103° |
| 2026-05-08 10:05 | -33.77890 | 151.35309 | 19304 ft | 395 kts | 102° |
| 2026-05-08 10:05 | -33.78473 | 151.38507 | 20043 ft | 399 kts | 102° |
| 2026-05-08 10:06 | -33.79062 | 151.41789 | 20761 ft | 403 kts | 102° |
| 2026-05-08 10:06 | -33.79655 | 151.45106 | 21457 ft | 407 kts | 102° |
| 2026-05-08 10:06 | -33.80252 | 151.48453 | 22139 ft | 412 kts | 102° |
| 2026-05-08 10:06 | -33.80857 | 151.51838 | 22793 ft | 416 kts | 102° |
| 2026-05-08 10:07 | -33.81468 | 151.55254 | 23438 ft | 420 kts | 102° |
| 2026-05-08 10:07 | -33.82085 | 151.58705 | 24085 ft | 424 kts | 102° |
| 2026-05-08 10:07 | -33.82708 | 151.62192 | 24692 ft | 428 kts | 102° |
| 2026-05-08 10:07 | -33.83335 | 151.65706 | 25296 ft | 432 kts | 102° |
| 2026-05-08 10:08 | -33.83968 | 151.69262 | 25880 ft | 436 kts | 102° |
| 2026-05-08 10:08 | -33.84606 | 151.72846 | 26450 ft | 440 kts | 102° |
| 2026-05-08 10:08 | -33.85248 | 151.76465 | 27003 ft | 444 kts | 102° |
| 2026-05-08 10:08 | -33.85894 | 151.80114 | 27547 ft | 448 kts | 102° |
| 2026-05-08 10:09 | -33.86545 | 151.83794 | 27923 ft | 451 kts | 102° |
| 2026-05-08 10:09 | -33.87196 | 151.87483 | 27994 ft | 451 kts | 102° |
| 2026-05-08 10:09 | -33.88499 | 151.94889 | 27999 ft | 453 kts | 102° |
| 2026-05-08 10:10 | -33.89150 | 151.98599 | 28000 ft | 453 kts | 102° |
| 2026-05-08 10:10 | -33.89799 | 152.02308 | 27999 ft | 453 kts | 102° |
| 2026-05-08 10:10 | -33.90621 | 152.09822 | 27998 ft | 453 kts | 92° |
| 2026-05-08 10:11 | -33.90726 | 152.13613 | 27996 ft | 453 kts | 91° |
| 2026-05-08 10:11 | -33.90777 | 152.17403 | 27999 ft | 453 kts | 90° |
| 2026-05-08 10:11 | -33.90801 | 152.21196 | 27997 ft | 453 kts | 90° |
| 2026-05-08 10:11 | -33.90815 | 152.24985 | 27998 ft | 453 kts | 90° |
| 2026-05-08 10:12 | -33.90841 | 152.32528 | 27998 ft | 453 kts | 90° |
| 2026-05-08 10:12 | -33.90858 | 152.36318 | 27998 ft | 453 kts | 90° |
| 2026-05-08 10:12 | -33.90878 | 152.40114 | 28005 ft | 453 kts | 90° |
| 2026-05-08 10:13 | -33.90918 | 152.47702 | 27998 ft | 453 kts | 90° |
| 2026-05-08 10:13 | -33.90954 | 152.55290 | 28000 ft | 453 kts | 90° |
| 2026-05-08 10:14 | -33.90971 | 152.59089 | 27998 ft | 453 kts | 90° |
| 2026-05-08 10:14 | -33.90986 | 152.62883 | 27999 ft | 453 kts | 90° |
| 2026-05-08 10:14 | -33.91012 | 152.70468 | 27999 ft | 453 kts | 90° |
| 2026-05-08 10:15 | -33.91034 | 152.78057 | 28005 ft | 453 kts | 90° |
| 2026-05-08 10:15 | -33.91051 | 152.85639 | 27999 ft | 453 kts | 90° |
| 2026-05-08 10:16 | -33.91057 | 152.89433 | 27999 ft | 453 kts | 90° |
| 2026-05-08 10:16 | -33.91063 | 152.93227 | 28001 ft | 453 kts | 90° |
| 2026-05-08 10:16 | -33.91070 | 153.00811 | 27999 ft | 453 kts | 90° |
| 2026-05-08 10:17 | -33.91073 | 153.04603 | 28000 ft | 453 kts | 90° |
| 2026-05-08 10:17 | -33.91074 | 153.08400 | 27998 ft | 453 kts | 90° |
| 2026-05-08 10:17 | -33.91077 | 153.15984 | 28000 ft | 453 kts | 90° |
| 2026-05-08 10:18 | -33.91075 | 153.19775 | 27995 ft | 453 kts | 90° |
| 2026-05-08 10:18 | -33.91069 | 153.23570 | 28000 ft | 453 kts | 90° |
| 2026-05-08 10:18 | -33.91062 | 153.27361 | 27999 ft | 453 kts | 90° |
| 2026-05-08 10:18 | -33.91055 | 153.31151 | 28001 ft | 453 kts | 90° |
| 2026-05-08 10:19 | -33.91047 | 153.34944 | 27998 ft | 453 kts | 90° |
| 2026-05-08 10:19 | -33.91038 | 153.38737 | 27999 ft | 453 kts | 90° |
| 2026-05-08 10:19 | -33.91028 | 153.42526 | 27998 ft | 453 kts | 90° |
| 2026-05-08 10:20 | -33.91006 | 153.50057 | 27999 ft | 453 kts | 90° |
| 2026-05-08 10:20 | -33.90978 | 153.57636 | 28001 ft | 453 kts | 90° |
| 2026-05-08 10:21 | -33.90946 | 153.65228 | 27998 ft | 453 kts | 90° |
| 2026-05-08 10:21 | -33.90910 | 153.72809 | 28005 ft | 453 kts | 89° |
| 2026-05-08 10:22 | -33.90866 | 153.80386 | 28000 ft | 453 kts | 89° |
| 2026-05-08 10:22 | -33.90843 | 153.84179 | 27998 ft | 453 kts | 89° |
| 2026-05-08 10:22 | -33.90820 | 153.87968 | 28001 ft | 453 kts | 89° |
| 2026-05-08 10:23 | -33.90771 | 153.95543 | 27998 ft | 453 kts | 89° |
| 2026-05-08 10:23 | -33.90744 | 153.99340 | 27997 ft | 453 kts | 89° |
| 2026-05-08 10:23 | -33.90716 | 154.03123 | 27998 ft | 453 kts | 89° |
| 2026-05-08 10:23 | -33.90687 | 154.06915 | 27998 ft | 453 kts | 89° |
| 2026-05-08 10:24 | -33.90656 | 154.10703 | 27998 ft | 453 kts | 89° |
| 2026-05-08 10:24 | -33.90592 | 154.18280 | 27999 ft | 453 kts | 89° |
| 2026-05-08 10:24 | -33.90558 | 154.22021 | 27998 ft | 453 kts | 89° |
| 2026-05-08 10:25 | -33.90523 | 154.25807 | 28000 ft | 453 kts | 89° |
| 2026-05-08 10:25 | -33.90486 | 154.29598 | 27996 ft | 453 kts | 89° |
| 2026-05-08 10:25 | -33.90449 | 154.33393 | 27995 ft | 453 kts | 89° |
| 2026-05-08 10:25 | -33.90410 | 154.37180 | 27998 ft | 453 kts | 89° |
| 2026-05-08 10:26 | -33.90370 | 154.40969 | 27995 ft | 453 kts | 89° |
| 2026-05-08 10:26 | -33.90329 | 154.44753 | 27999 ft | 453 kts | 89° |
| 2026-05-08 10:26 | -33.90287 | 154.48544 | 28001 ft | 453 kts | 89° |
| 2026-05-08 10:26 | -33.90232 | 154.52326 | 27999 ft | 453 kts | 88° |
| 2026-05-08 10:27 | -33.90018 | 154.56107 | 28000 ft | 452 kts | 84° |
| 2026-05-08 10:27 | -33.89305 | 154.63626 | 28000 ft | 452 kts | 83° |
| 2026-05-08 10:27 | -33.88927 | 154.67392 | 27998 ft | 452 kts | 83° |
| 2026-05-08 10:28 | -33.88566 | 154.71155 | 27998 ft | 452 kts | 83° |
| 2026-05-08 10:28 | -33.88224 | 154.74915 | 27998 ft | 452 kts | 84° |
| 2026-05-08 10:28 | -33.87894 | 154.78687 | 27998 ft | 452 kts | 84° |
| 2026-05-08 10:29 | -33.87254 | 154.86213 | 28001 ft | 452 kts | 84° |
| 2026-05-08 10:29 | -33.86615 | 154.93753 | 28000 ft | 452 kts | 84° |
| 2026-05-08 10:29 | -33.86298 | 154.97467 | 27999 ft | 452 kts | 84° |
| 2026-05-08 10:30 | -33.85974 | 155.01235 | 27999 ft | 452 kts | 84° |
| 2026-05-08 10:30 | -33.85649 | 155.04996 | 27999 ft | 452 kts | 84° |
| 2026-05-08 10:30 | -33.85322 | 155.08762 | 28004 ft | 452 kts | 84° |
| 2026-05-08 10:30 | -33.84854 | 155.12499 | 27997 ft | 452 kts | 78° |
| 2026-05-08 10:31 | -33.84016 | 155.16147 | 27996 ft | 452 kts | 70° |
| 2026-05-08 10:31 | -33.82771 | 155.19614 | 27998 ft | 452 kts | 62° |
| 2026-05-08 10:31 | -33.81117 | 155.22825 | 28000 ft | 452 kts | 53° |
| 2026-05-08 10:32 | -33.77076 | 155.28613 | 28001 ft | 452 kts | 48° |
| 2026-05-08 10:32 | -33.72838 | 155.34190 | 28001 ft | 452 kts | 47° |
| 2026-05-08 10:32 | -33.70713 | 155.36970 | 27998 ft | 452 kts | 47° |
| 2026-05-08 10:33 | -33.68592 | 155.39756 | 27998 ft | 452 kts | 47° |
| 2026-05-08 10:33 | -33.66479 | 155.42546 | 27999 ft | 452 kts | 47° |
| 2026-05-08 10:33 | -33.64368 | 155.45344 | 27998 ft | 452 kts | 47° |
| 2026-05-08 10:33 | -33.62263 | 155.48137 | 27996 ft | 452 kts | 47° |
| 2026-05-08 10:34 | -33.60157 | 155.50934 | 28000 ft | 452 kts | 47° |
| 2026-05-08 10:34 | -33.55942 | 155.56528 | 27998 ft | 452 kts | 47° |
| 2026-05-08 10:35 | -33.52441 | 155.61166 | 28001 ft | 452 kts | 47° |
| 2026-05-08 10:35 | -33.47535 | 155.67652 | 27999 ft | 452 kts | 47° |
| 2026-05-08 10:35 | -33.45426 | 155.70436 | 27998 ft | 452 kts | 47° |
| 2026-05-08 10:36 | -33.43310 | 155.73227 | 28003 ft | 452 kts | 47° |
| 2026-05-08 10:36 | -33.39773 | 155.77889 | 28003 ft | 452 kts | 47° |
| 2026-05-08 10:37 | -33.35572 | 155.83417 | 28005 ft | 452 kts | 47° |
| 2026-05-08 10:37 | -33.31342 | 155.88975 | 28000 ft | 451 kts | 47° |
| 2026-05-08 10:37 | -33.29231 | 155.91746 | 27998 ft | 451 kts | 47° |
| 2026-05-08 10:38 | -33.27113 | 155.94523 | 28000 ft | 451 kts | 47° |
| 2026-05-08 10:38 | -33.24997 | 155.97296 | 27997 ft | 451 kts | 47° |
| 2026-05-08 10:38 | -33.22882 | 156.00065 | 27999 ft | 451 kts | 47° |
| 2026-05-08 10:38 | -33.20765 | 156.02835 | 28000 ft | 451 kts | 47° |
| 2026-05-08 10:39 | -33.18648 | 156.05603 | 28003 ft | 451 kts | 47° |
| 2026-05-08 10:39 | -33.14413 | 156.11132 | 28001 ft | 451 kts | 47° |
| 2026-05-08 10:40 | -33.10171 | 156.16663 | 28001 ft | 451 kts | 47° |
| 2026-05-08 10:40 | -33.05929 | 156.22186 | 27999 ft | 451 kts | 47° |
| 2026-05-08 10:40 | -33.03807 | 156.24945 | 27997 ft | 451 kts | 47° |
| 2026-05-08 10:41 | -33.01684 | 156.27703 | 28003 ft | 451 kts | 47° |
| 2026-05-08 10:41 | -32.97441 | 156.33210 | 27998 ft | 451 kts | 47° |
| 2026-05-08 10:41 | -32.95314 | 156.35967 | 27998 ft | 451 kts | 47° |
| 2026-05-08 10:42 | -32.93192 | 156.38715 | 28001 ft | 451 kts | 47° |
| 2026-05-08 10:42 | -32.91065 | 156.41469 | 27993 ft | 451 kts | 47° |
| 2026-05-08 10:42 | -32.88969 | 156.44179 | 27999 ft | 451 kts | 47° |
| 2026-05-08 10:42 | -32.86816 | 156.46963 | 28000 ft | 451 kts | 47° |
| 2026-05-08 10:43 | -32.84689 | 156.49708 | 28004 ft | 451 kts | 47° |
| 2026-05-08 10:43 | -32.82589 | 156.52418 | 28000 ft | 451 kts | 47° |
| 2026-05-08 10:43 | -32.80462 | 156.55160 | 28000 ft | 451 kts | 47° |
| 2026-05-08 10:44 | -32.76206 | 156.60643 | 27997 ft | 451 kts | 47° |
| 2026-05-08 10:44 | -32.71949 | 156.66117 | 28002 ft | 451 kts | 47° |
| 2026-05-08 10:45 | -32.67687 | 156.71590 | 27994 ft | 451 kts | 47° |
| 2026-05-08 10:45 | -32.65557 | 156.74321 | 27999 ft | 451 kts | 47° |
| 2026-05-08 10:45 | -32.63422 | 156.77058 | 27997 ft | 451 kts | 47° |
| 2026-05-08 10:45 | -32.61284 | 156.79796 | 27999 ft | 451 kts | 47° |
| 2026-05-08 10:46 | -32.59150 | 156.82527 | 28001 ft | 451 kts | 47° |
| 2026-05-08 10:46 | -32.54883 | 156.87982 | 28003 ft | 451 kts | 47° |
| 2026-05-08 10:46 | -32.52748 | 156.90708 | 28000 ft | 451 kts | 47° |
| 2026-05-08 10:47 | -32.50615 | 156.93429 | 28002 ft | 451 kts | 47° |
| 2026-05-08 10:47 | -32.48477 | 156.96155 | 28000 ft | 451 kts | 47° |
| 2026-05-08 10:47 | -32.46368 | 156.98841 | 28001 ft | 451 kts | 47° |
| 2026-05-08 10:47 | -32.44231 | 157.01562 | 27996 ft | 451 kts | 47° |
| 2026-05-08 10:48 | -32.42095 | 157.04279 | 28003 ft | 451 kts | 47° |
| 2026-05-08 10:48 | -32.39956 | 157.06998 | 27997 ft | 451 kts | 47° |
| 2026-05-08 10:48 | -32.37816 | 157.09716 | 28001 ft | 451 kts | 47° |
| 2026-05-08 10:49 | -32.33539 | 157.15143 | 28003 ft | 451 kts | 47° |
| 2026-05-08 10:49 | -32.31400 | 157.17853 | 27998 ft | 451 kts | 47° |
| 2026-05-08 10:49 | -32.29259 | 157.20564 | 27998 ft | 451 kts | 47° |
| 2026-05-08 10:50 | -32.24978 | 157.25980 | 27999 ft | 451 kts | 47° |
| 2026-05-08 10:50 | -32.22839 | 157.28683 | 27999 ft | 451 kts | 47° |
| 2026-05-08 10:50 | -32.20696 | 157.31388 | 27999 ft | 451 kts | 46° |
| 2026-05-08 10:51 | -32.16407 | 157.36798 | 28000 ft | 451 kts | 46° |
| 2026-05-08 10:51 | -32.14264 | 157.39498 | 27999 ft | 451 kts | 46° |
| 2026-05-08 10:51 | -32.12123 | 157.42193 | 28000 ft | 451 kts | 46° |
| 2026-05-08 10:51 | -32.09976 | 157.44894 | 27999 ft | 451 kts | 46° |
| 2026-05-08 10:52 | -32.07834 | 157.47587 | 28002 ft | 451 kts | 46° |
| 2026-05-08 10:52 | -32.03538 | 157.52981 | 28003 ft | 451 kts | 46° |
| 2026-05-08 10:53 | -31.99268 | 157.58335 | 28000 ft | 451 kts | 46° |
| 2026-05-08 10:53 | -31.94970 | 157.63716 | 28001 ft | 451 kts | 46° |
| 2026-05-08 10:54 | -31.90674 | 157.69087 | 27998 ft | 451 kts | 46° |
| 2026-05-08 10:54 | -31.88523 | 157.71773 | 28000 ft | 451 kts | 46° |
| 2026-05-08 10:54 | -31.86370 | 157.74460 | 27999 ft | 451 kts | 46° |
| 2026-05-08 10:54 | -31.84215 | 157.77147 | 27997 ft | 451 kts | 46° |
| 2026-05-08 10:55 | -31.82060 | 157.79832 | 27999 ft | 451 kts | 46° |
| 2026-05-08 10:55 | -31.79908 | 157.82511 | 28000 ft | 451 kts | 46° |
| 2026-05-08 10:55 | -31.77756 | 157.85190 | 28000 ft | 451 kts | 46° |
| 2026-05-08 10:56 | -31.73449 | 157.90543 | 28002 ft | 451 kts | 46° |
| 2026-05-08 10:56 | -31.71324 | 157.93181 | 27995 ft | 451 kts | 46° |
| 2026-05-08 10:56 | -31.69171 | 157.95853 | 27999 ft | 451 kts | 46° |
| 2026-05-08 10:57 | -31.64855 | 158.01201 | 28000 ft | 451 kts | 46° |
| 2026-05-08 10:57 | -31.58387 | 158.09202 | 27999 ft | 450 kts | 46° |
| 2026-05-08 10:58 | -31.54069 | 158.14534 | 27997 ft | 450 kts | 46° |
| 2026-05-08 10:58 | -31.51912 | 158.17196 | 27998 ft | 450 kts | 46° |
| 2026-05-08 10:58 | -31.49752 | 158.19858 | 27998 ft | 450 kts | 46° |
| 2026-05-08 10:59 | -31.47593 | 158.22518 | 27998 ft | 450 kts | 46° |
| 2026-05-08 10:59 | -31.45433 | 158.25176 | 27999 ft | 450 kts | 46° |
| 2026-05-08 10:59 | -31.43271 | 158.27836 | 27999 ft | 450 kts | 46° |
| 2026-05-08 10:59 | -31.41111 | 158.30490 | 27999 ft | 450 kts | 46° |
| 2026-05-08 11:00 | -31.38950 | 158.33145 | 27999 ft | 450 kts | 46° |
| 2026-05-08 11:00 | -31.36787 | 158.35800 | 27999 ft | 450 kts | 46° |
| 2026-05-08 11:00 | -31.34627 | 158.38449 | 27998 ft | 450 kts | 46° |
| 2026-05-08 11:00 | -31.32465 | 158.41099 | 27999 ft | 450 kts | 46° |
| 2026-05-08 11:01 | -31.28132 | 158.46403 | 28001 ft | 450 kts | 46° |
| 2026-05-08 11:01 | -31.23804 | 158.51695 | 28002 ft | 450 kts | 46° |
| 2026-05-08 11:02 | -31.21642 | 158.54336 | 27998 ft | 450 kts | 46° |
| 2026-05-08 11:02 | -31.17309 | 158.59622 | 28001 ft | 450 kts | 46° |
| 2026-05-08 11:02 | -31.15143 | 158.62261 | 27999 ft | 450 kts | 46° |
| 2026-05-08 11:03 | -31.12975 | 158.64902 | 28001 ft | 450 kts | 46° |
| 2026-05-08 11:03 | -31.10809 | 158.67538 | 27994 ft | 450 kts | 46° |
| 2026-05-08 11:03 | -31.08642 | 158.70174 | 27999 ft | 450 kts | 46° |
| 2026-05-08 11:04 | -31.04304 | 158.75443 | 27998 ft | 450 kts | 46° |
| 2026-05-08 11:04 | -31.02135 | 158.78075 | 28000 ft | 450 kts | 46° |
| 2026-05-08 11:04 | -30.99990 | 158.80677 | 27998 ft | 450 kts | 46° |
| 2026-05-08 11:04 | -30.97820 | 158.83307 | 27999 ft | 450 kts | 46° |
| 2026-05-08 11:05 | -30.95645 | 158.85940 | 27998 ft | 450 kts | 46° |
| 2026-05-08 11:05 | -30.93474 | 158.88568 | 28000 ft | 450 kts | 46° |
| 2026-05-08 11:05 | -30.91302 | 158.91194 | 28000 ft | 450 kts | 46° |
| 2026-05-08 11:06 | -30.86960 | 158.96440 | 28001 ft | 450 kts | 46° |
| 2026-05-08 11:06 | -30.82608 | 159.01691 | 27999 ft | 450 kts | 46° |
| 2026-05-08 11:07 | -30.78257 | 159.06931 | 28001 ft | 450 kts | 46° |
| 2026-05-08 11:07 | -30.76083 | 159.09548 | 27998 ft | 450 kts | 46° |
| 2026-05-08 11:07 | -30.73907 | 159.12164 | 28000 ft | 450 kts | 46° |
| 2026-05-08 11:07 | -30.71732 | 159.14778 | 28000 ft | 450 kts | 46° |
| 2026-05-08 11:08 | -30.69559 | 159.17389 | 28001 ft | 450 kts | 46° |
| 2026-05-08 11:08 | -30.65227 | 159.22585 | 28005 ft | 450 kts | 46° |
| 2026-05-08 11:08 | -30.63048 | 159.25197 | 27999 ft | 450 kts | 46° |
| 2026-05-08 11:09 | -30.60872 | 159.27804 | 28005 ft | 450 kts | 46° |
| 2026-05-08 11:09 | -30.56509 | 159.33023 | 28001 ft | 450 kts | 45° |
| 2026-05-08 11:10 | -30.52143 | 159.38239 | 28000 ft | 450 kts | 45° |
| 2026-05-08 11:10 | -30.49964 | 159.40840 | 27998 ft | 450 kts | 45° |
| 2026-05-08 11:10 | -30.47783 | 159.43442 | 27999 ft | 450 kts | 45° |
| 2026-05-08 11:10 | -30.45603 | 159.46040 | 27999 ft | 450 kts | 45° |
| 2026-05-08 11:11 | -30.43419 | 159.48642 | 28002 ft | 450 kts | 45° |
| 2026-05-08 11:11 | -30.41264 | 159.51207 | 28000 ft | 450 kts | 45° |
| 2026-05-08 11:11 | -30.39080 | 159.53805 | 28001 ft | 450 kts | 45° |
| 2026-05-08 11:12 | -30.34711 | 159.58996 | 28003 ft | 450 kts | 45° |
| 2026-05-08 11:12 | -30.32530 | 159.61585 | 28000 ft | 450 kts | 45° |
| 2026-05-08 11:12 | -30.30341 | 159.64182 | 27999 ft | 450 kts | 45° |
| 2026-05-08 11:13 | -30.25973 | 159.69358 | 28001 ft | 450 kts | 45° |
| 2026-05-08 11:13 | -30.23785 | 159.71949 | 28000 ft | 450 kts | 45° |
| 2026-05-08 11:13 | -30.21596 | 159.74538 | 28002 ft | 450 kts | 45° |
| 2026-05-08 11:14 | -30.17222 | 159.79707 | 28004 ft | 450 kts | 45° |
| 2026-05-08 11:14 | -30.15033 | 159.82291 | 28000 ft | 450 kts | 45° |
| 2026-05-08 11:14 | -30.12847 | 159.84871 | 28001 ft | 450 kts | 45° |
| 2026-05-08 11:14 | -30.10656 | 159.87454 | 27998 ft | 450 kts | 45° |
| 2026-05-08 11:15 | -30.08470 | 159.90030 | 28004 ft | 450 kts | 45° |
| 2026-05-08 11:15 | -30.06281 | 159.92607 | 27997 ft | 450 kts | 45° |
| 2026-05-08 11:15 | -30.04090 | 159.95186 | 27997 ft | 450 kts | 45° |
| 2026-05-08 11:16 | -29.99783 | 160.00416 | 28014 ft | 450 kts | 50° |
| 2026-05-08 11:16 | -29.97801 | 160.03145 | 27999 ft | 450 kts | 50° |
| 2026-05-08 11:16 | -29.95819 | 160.05939 | 27997 ft | 450 kts | 51° |
| 2026-05-08 11:16 | -29.93854 | 160.08743 | 27997 ft | 450 kts | 51° |
| 2026-05-08 11:17 | -29.91895 | 160.11553 | 27999 ft | 450 kts | 51° |
| 2026-05-08 11:17 | -29.89939 | 160.14361 | 27999 ft | 450 kts | 51° |
| 2026-05-08 11:17 | -29.87978 | 160.17172 | 28002 ft | 450 kts | 51° |
| 2026-05-08 11:17 | -29.86017 | 160.19977 | 27999 ft | 450 kts | 51° |
| 2026-05-08 11:18 | -29.84052 | 160.22782 | 28001 ft | 450 kts | 51° |
| 2026-05-08 11:18 | -29.82089 | 160.25581 | 27999 ft | 450 kts | 51° |
| 2026-05-08 11:18 | -29.80121 | 160.28382 | 28000 ft | 450 kts | 51° |
| 2026-05-08 11:19 | -29.76187 | 160.33976 | 27997 ft | 450 kts | 51° |
| 2026-05-08 11:19 | -29.74217 | 160.36773 | 27999 ft | 450 kts | 51° |
| 2026-05-08 11:19 | -29.72243 | 160.39576 | 27999 ft | 450 kts | 51° |
| 2026-05-08 11:20 | -29.68308 | 160.45156 | 28001 ft | 449 kts | 51° |
| 2026-05-08 11:20 | -29.64363 | 160.50742 | 28003 ft | 449 kts | 51° |
| 2026-05-08 11:20 | -29.62389 | 160.53535 | 27997 ft | 449 kts | 51° |
| 2026-05-08 11:21 | -29.60419 | 160.56319 | 27999 ft | 449 kts | 51° |
| 2026-05-08 11:21 | -29.58471 | 160.59071 | 27999 ft | 449 kts | 51° |
| 2026-05-08 11:21 | -29.56494 | 160.61863 | 27997 ft | 449 kts | 51° |
| 2026-05-08 11:21 | -29.54522 | 160.64645 | 28000 ft | 449 kts | 51° |
| 2026-05-08 11:22 | -29.52548 | 160.67428 | 28001 ft | 449 kts | 51° |
| 2026-05-08 11:22 | -29.50574 | 160.70210 | 27999 ft | 449 kts | 51° |
| 2026-05-08 11:22 | -29.48596 | 160.72994 | 27997 ft | 449 kts | 51° |
| 2026-05-08 11:22 | -29.46622 | 160.75772 | 27999 ft | 449 kts | 51° |
| 2026-05-08 11:23 | -29.45284 | 160.77654 | 27997 ft | 449 kts | 51° |
| 2026-05-08 11:23 | -29.43336 | 160.80391 | 27999 ft | 449 kts | 51° |
| 2026-05-08 11:23 | -29.41354 | 160.83175 | 28000 ft | 449 kts | 50° |
| 2026-05-08 11:23 | -29.39379 | 160.85947 | 27999 ft | 449 kts | 50° |
| 2026-05-08 11:24 | -29.37397 | 160.88726 | 28001 ft | 449 kts | 50° |
| 2026-05-08 11:24 | -29.35419 | 160.91498 | 27998 ft | 449 kts | 50° |
| 2026-05-08 11:24 | -29.33440 | 160.94271 | 28002 ft | 449 kts | 50° |
| 2026-05-08 11:25 | -29.29479 | 160.99812 | 28000 ft | 449 kts | 50° |
| 2026-05-08 11:25 | -29.25517 | 161.05349 | 27997 ft | 449 kts | 50° |
| 2026-05-08 11:26 | -29.21551 | 161.10882 | 27999 ft | 449 kts | 50° |
| 2026-05-08 11:26 | -29.19569 | 161.13646 | 27999 ft | 449 kts | 50° |
| 2026-05-08 11:26 | -29.17582 | 161.16414 | 27998 ft | 449 kts | 50° |
| 2026-05-08 11:27 | -29.13642 | 161.21897 | 28006 ft | 449 kts | 50° |
| 2026-05-08 11:27 | -29.11659 | 161.24653 | 28000 ft | 449 kts | 50° |
| 2026-05-08 11:27 | -29.09671 | 161.27416 | 28002 ft | 449 kts | 50° |
| 2026-05-08 11:27 | -29.07686 | 161.30172 | 27996 ft | 449 kts | 50° |
| 2026-05-08 11:28 | -29.05702 | 161.32925 | 28000 ft | 449 kts | 50° |
| 2026-05-08 11:28 | -29.01721 | 161.38442 | 27997 ft | 449 kts | 50° |
| 2026-05-08 11:28 | -28.99729 | 161.41201 | 27999 ft | 449 kts | 50° |
| 2026-05-08 11:29 | -28.97741 | 161.43952 | 27999 ft | 449 kts | 50° |
| 2026-05-08 11:29 | -28.95751 | 161.46704 | 27997 ft | 449 kts | 50° |
| 2026-05-08 11:29 | -28.93761 | 161.49455 | 28002 ft | 449 kts | 50° |
| 2026-05-08 11:30 | -28.89808 | 161.54912 | 28000 ft | 449 kts | 50° |
| 2026-05-08 11:30 | -28.87816 | 161.57659 | 27999 ft | 449 kts | 50° |
| 2026-05-08 11:30 | -28.85819 | 161.60411 | 27997 ft | 449 kts | 50° |
| 2026-05-08 11:31 | -28.81830 | 161.65904 | 27998 ft | 449 kts | 50° |
| 2026-05-08 11:31 | -28.79835 | 161.68648 | 28000 ft | 449 kts | 50° |
| 2026-05-08 11:31 | -28.77844 | 161.71385 | 28001 ft | 449 kts | 50° |
| 2026-05-08 11:31 | -28.75848 | 161.74128 | 28000 ft | 449 kts | 50° |
| 2026-05-08 11:32 | -28.73854 | 161.76865 | 28001 ft | 449 kts | 50° |
| 2026-05-08 11:32 | -28.71884 | 161.79567 | 27999 ft | 449 kts | 50° |
| 2026-05-08 11:32 | -28.69888 | 161.82304 | 27999 ft | 449 kts | 50° |
| 2026-05-08 11:32 | -28.67890 | 161.85042 | 28000 ft | 449 kts | 50° |
| 2026-05-08 11:33 | -28.65893 | 161.87776 | 27999 ft | 449 kts | 50° |
| 2026-05-08 11:33 | -28.63894 | 161.90511 | 27997 ft | 449 kts | 50° |
| 2026-05-08 11:33 | -28.61895 | 161.93245 | 28006 ft | 449 kts | 50° |
| 2026-05-08 11:33 | -28.59897 | 161.95974 | 28000 ft | 449 kts | 50° |
| 2026-05-08 11:34 | -28.57897 | 161.98706 | 28002 ft | 449 kts | 50° |
| 2026-05-08 11:34 | -28.53900 | 162.04159 | 27999 ft | 449 kts | 50° |
| 2026-05-08 11:34 | -28.51900 | 162.06886 | 27997 ft | 449 kts | 50° |
| 2026-05-08 11:35 | -28.49898 | 162.09612 | 27999 ft | 449 kts | 50° |
| 2026-05-08 11:35 | -28.45894 | 162.15062 | 27997 ft | 449 kts | 50° |
| 2026-05-08 11:36 | -28.41917 | 162.20466 | 28000 ft | 449 kts | 50° |
| 2026-05-08 11:36 | -28.37911 | 162.25903 | 28001 ft | 449 kts | 50° |
| 2026-05-08 11:36 | -28.35906 | 162.28622 | 27998 ft | 449 kts | 50° |
| 2026-05-08 11:37 | -28.33902 | 162.31338 | 27995 ft | 449 kts | 50° |
| 2026-05-08 11:37 | -28.31894 | 162.34057 | 27999 ft | 449 kts | 50° |
| 2026-05-08 11:37 | -28.29887 | 162.36772 | 28001 ft | 449 kts | 50° |
| 2026-05-08 11:38 | -28.25870 | 162.42203 | 28002 ft | 449 kts | 50° |
| 2026-05-08 11:38 | -28.23863 | 162.44915 | 27999 ft | 449 kts | 50° |
| 2026-05-08 11:38 | -28.21855 | 162.47625 | 27998 ft | 449 kts | 50° |
| 2026-05-08 11:39 | -28.17860 | 162.53012 | 28002 ft | 449 kts | 50° |
| 2026-05-08 11:39 | -28.15851 | 162.55720 | 27998 ft | 449 kts | 50° |
| 2026-05-08 11:39 | -28.13842 | 162.58423 | 27999 ft | 449 kts | 50° |
| 2026-05-08 11:39 | -28.11834 | 162.61126 | 27999 ft | 449 kts | 50° |
| 2026-05-08 11:40 | -28.09826 | 162.63826 | 28000 ft | 448 kts | 50° |
| 2026-05-08 11:40 | -28.05802 | 162.69231 | 28000 ft | 448 kts | 50° |
| 2026-05-08 11:41 | -28.01781 | 162.74627 | 28001 ft | 448 kts | 50° |
| 2026-05-08 11:41 | -27.99768 | 162.77325 | 27996 ft | 448 kts | 50° |
| 2026-05-08 11:41 | -27.97753 | 162.80024 | 27993 ft | 448 kts | 50° |
| 2026-05-08 11:42 | -27.93724 | 162.85416 | 28004 ft | 448 kts | 50° |
| 2026-05-08 11:42 | -27.91710 | 162.88108 | 27998 ft | 448 kts | 50° |
| 2026-05-08 11:42 | -27.89695 | 162.90802 | 27998 ft | 448 kts | 50° |
| 2026-05-08 11:43 | -27.85663 | 162.96184 | 28000 ft | 448 kts | 50° |
| 2026-05-08 11:43 | -27.83657 | 162.98882 | 27996 ft | 448 kts | 51° |
| 2026-05-08 11:43 | -27.81797 | 163.01715 | 27996 ft | 448 kts | 54° |
| 2026-05-08 11:43 | -27.80019 | 163.04558 | 28000 ft | 448 kts | 55° |
| 2026-05-08 11:44 | -27.78244 | 163.07453 | 28003 ft | 448 kts | 55° |
| 2026-05-08 11:44 | -27.74717 | 163.13269 | 27993 ft | 448 kts | 55° |
| 2026-05-08 11:44 | -27.72957 | 163.16174 | 28000 ft | 448 kts | 55° |
| 2026-05-08 11:45 | -27.71195 | 163.19076 | 27999 ft | 448 kts | 55° |
| 2026-05-08 11:45 | -27.67663 | 163.24878 | 28001 ft | 448 kts | 55° |
| 2026-05-08 11:45 | -27.65897 | 163.27772 | 27999 ft | 448 kts | 55° |
| 2026-05-08 11:46 | -27.64125 | 163.30672 | 27999 ft | 448 kts | 55° |
| 2026-05-08 11:46 | -27.62357 | 163.33564 | 27999 ft | 448 kts | 55° |
| 2026-05-08 11:46 | -27.60585 | 163.36459 | 28002 ft | 448 kts | 55° |
| 2026-05-08 11:46 | -27.58813 | 163.39354 | 27997 ft | 448 kts | 55° |
| 2026-05-08 11:47 | -27.57041 | 163.42246 | 28003 ft | 448 kts | 55° |
| 2026-05-08 11:47 | -27.55270 | 163.45136 | 28000 ft | 448 kts | 55° |
| 2026-05-08 11:47 | -27.53498 | 163.48026 | 27999 ft | 448 kts | 55° |
| 2026-05-08 11:48 | -27.49950 | 163.53804 | 28001 ft | 448 kts | 55° |
| 2026-05-08 11:48 | -27.46400 | 163.59579 | 27999 ft | 448 kts | 55° |
| 2026-05-08 11:49 | -27.42847 | 163.65353 | 27999 ft | 448 kts | 55° |
| 2026-05-08 11:49 | -27.41088 | 163.68208 | 28000 ft | 448 kts | 55° |
| 2026-05-08 11:49 | -27.39312 | 163.71087 | 27999 ft | 448 kts | 55° |
| 2026-05-08 11:50 | -27.35752 | 163.76855 | 27999 ft | 448 kts | 55° |
| 2026-05-08 11:50 | -27.32195 | 163.82611 | 28000 ft | 448 kts | 55° |
| 2026-05-08 11:51 | -27.28637 | 163.88363 | 28001 ft | 448 kts | 55° |
| 2026-05-08 11:51 | -27.26854 | 163.91240 | 28000 ft | 448 kts | 55° |
| 2026-05-08 11:51 | -27.25073 | 163.94114 | 27997 ft | 448 kts | 55° |
| 2026-05-08 11:51 | -27.23292 | 163.96986 | 27999 ft | 448 kts | 55° |
| 2026-05-08 11:52 | -27.21509 | 163.99860 | 27997 ft | 448 kts | 55° |
| 2026-05-08 11:52 | -27.17965 | 164.05565 | 27999 ft | 448 kts | 55° |
| 2026-05-08 11:53 | -27.14395 | 164.11305 | 28001 ft | 448 kts | 55° |
| 2026-05-08 11:53 | -27.12611 | 164.14171 | 27998 ft | 448 kts | 55° |
| 2026-05-08 11:53 | -27.10821 | 164.17043 | 28000 ft | 448 kts | 55° |
| 2026-05-08 11:53 | -27.09038 | 164.19904 | 27998 ft | 448 kts | 55° |
| 2026-05-08 11:54 | -27.07249 | 164.22772 | 27997 ft | 448 kts | 55° |
| 2026-05-08 11:54 | -27.05462 | 164.25635 | 28000 ft | 448 kts | 55° |
| 2026-05-08 11:54 | -27.03673 | 164.28499 | 27999 ft | 448 kts | 55° |
| 2026-05-08 11:54 | -27.01885 | 164.31359 | 27999 ft | 448 kts | 54° |
| 2026-05-08 11:55 | -27.00096 | 164.34220 | 28000 ft | 448 kts | 54° |
| 2026-05-08 11:55 | -26.96519 | 164.39935 | 27999 ft | 448 kts | 54° |
| 2026-05-08 11:55 | -26.94727 | 164.42794 | 27999 ft | 448 kts | 54° |
| 2026-05-08 11:56 | -26.92935 | 164.45652 | 28000 ft | 448 kts | 54° |
| 2026-05-08 11:56 | -26.91143 | 164.48509 | 28000 ft | 448 kts | 54° |
| 2026-05-08 11:56 | -26.89374 | 164.51326 | 28004 ft | 448 kts | 54° |
| 2026-05-08 11:56 | -26.87579 | 164.54183 | 28000 ft | 448 kts | 54° |
| 2026-05-08 11:57 | -26.85785 | 164.57038 | 27999 ft | 448 kts | 54° |
| 2026-05-08 11:57 | -26.83991 | 164.59891 | 28000 ft | 448 kts | 54° |
| 2026-05-08 11:57 | -26.82195 | 164.62744 | 27999 ft | 448 kts | 54° |
| 2026-05-08 11:58 | -26.78607 | 164.68438 | 27999 ft | 448 kts | 54° |
| 2026-05-08 11:58 | -26.76810 | 164.71288 | 28000 ft | 448 kts | 54° |
| 2026-05-08 11:58 | -26.75015 | 164.74132 | 28002 ft | 448 kts | 54° |
| 2026-05-08 11:59 | -26.71437 | 164.79798 | 27999 ft | 448 kts | 54° |
| 2026-05-08 11:59 | -26.69615 | 164.82680 | 28000 ft | 448 kts | 54° |
| 2026-05-08 11:59 | -26.67839 | 164.85488 | 27997 ft | 448 kts | 54° |
| 2026-05-08 11:59 | -26.66041 | 164.88328 | 28001 ft | 448 kts | 54° |
| 2026-05-08 12:00 | -26.62440 | 164.94013 | 28000 ft | 448 kts | 54° |
| 2026-05-08 12:00 | -26.60640 | 164.96850 | 28000 ft | 448 kts | 54° |
| 2026-05-08 12:00 | -26.58837 | 164.99692 | 28000 ft | 448 kts | 54° |
| 2026-05-08 12:01 | -26.55234 | 165.05364 | 27998 ft | 448 kts | 54° |
| 2026-05-08 12:01 | -26.53432 | 165.08198 | 27999 ft | 448 kts | 54° |
| 2026-05-08 12:01 | -26.51627 | 165.11036 | 27999 ft | 448 kts | 54° |
| 2026-05-08 12:02 | -26.49844 | 165.13837 | 27999 ft | 448 kts | 54° |
| 2026-05-08 12:02 | -26.48040 | 165.16668 | 28000 ft | 448 kts | 54° |
| 2026-05-08 12:02 | -26.46237 | 165.19498 | 28000 ft | 448 kts | 54° |
| 2026-05-08 12:02 | -26.44431 | 165.22330 | 28004 ft | 447 kts | 54° |
| 2026-05-08 12:03 | -26.42627 | 165.25157 | 27999 ft | 447 kts | 54° |
| 2026-05-08 12:03 | -26.40822 | 165.27984 | 28001 ft | 447 kts | 54° |
| 2026-05-08 12:03 | -26.37207 | 165.33639 | 28006 ft | 447 kts | 54° |
| 2026-05-08 12:04 | -26.35400 | 165.36464 | 28000 ft | 447 kts | 54° |
| 2026-05-08 12:04 | -26.33593 | 165.39287 | 27999 ft | 447 kts | 54° |
| 2026-05-08 12:04 | -26.29977 | 165.44931 | 27999 ft | 447 kts | 54° |
| 2026-05-08 12:05 | -26.26355 | 165.50576 | 27999 ft | 447 kts | 54° |
| 2026-05-08 12:05 | -26.24547 | 165.53393 | 28000 ft | 447 kts | 54° |
| 2026-05-08 12:05 | -26.22735 | 165.56212 | 27994 ft | 447 kts | 54° |
| 2026-05-08 12:06 | -26.20924 | 165.59029 | 27999 ft | 447 kts | 54° |
| 2026-05-08 12:06 | -26.19109 | 165.61850 | 28005 ft | 447 kts | 54° |
| 2026-05-08 12:06 | -26.15483 | 165.67483 | 27998 ft | 447 kts | 54° |
| 2026-05-08 12:07 | -26.13670 | 165.70296 | 28000 ft | 447 kts | 54° |
| 2026-05-08 12:07 | -26.11878 | 165.73075 | 27999 ft | 447 kts | 54° |
| 2026-05-08 12:07 | -26.10064 | 165.75886 | 27996 ft | 447 kts | 54° |
| 2026-05-08 12:07 | -26.08246 | 165.78701 | 28004 ft | 447 kts | 54° |
| 2026-05-08 12:08 | -26.06432 | 165.81509 | 28000 ft | 447 kts | 54° |
| 2026-05-08 12:08 | -26.04616 | 165.84318 | 28001 ft | 447 kts | 54° |
| 2026-05-08 12:08 | -26.00984 | 165.89931 | 27999 ft | 447 kts | 54° |
| 2026-05-08 12:09 | -25.99166 | 165.92738 | 27998 ft | 447 kts | 54° |
| 2026-05-08 12:09 | -25.97349 | 165.95542 | 27997 ft | 447 kts | 54° |
| 2026-05-08 12:09 | -25.95531 | 165.98346 | 28000 ft | 447 kts | 54° |
| 2026-05-08 12:09 | -25.93711 | 166.01151 | 28004 ft | 447 kts | 54° |
| 2026-05-08 12:10 | -25.91891 | 166.03955 | 28000 ft | 447 kts | 54° |
| 2026-05-08 12:10 | -25.90072 | 166.06755 | 28002 ft | 447 kts | 54° |
| 2026-05-08 12:10 | -25.88250 | 166.09557 | 28000 ft | 447 kts | 54° |
| 2026-05-08 12:10 | -25.86430 | 166.12357 | 28001 ft | 447 kts | 54° |
| 2026-05-08 12:11 | -25.83380 | 166.17043 | 27999 ft | 447 kts | 54° |
| 2026-05-08 12:11 | -25.81583 | 166.19802 | 27997 ft | 447 kts | 54° |
| 2026-05-08 12:11 | -25.79758 | 166.22601 | 28001 ft | 447 kts | 54° |
| 2026-05-08 12:12 | -25.77931 | 166.25402 | 27999 ft | 447 kts | 54° |
| 2026-05-08 12:12 | -25.76105 | 166.28200 | 28000 ft | 447 kts | 54° |
| 2026-05-08 12:12 | -25.72455 | 166.33788 | 27997 ft | 447 kts | 54° |
| 2026-05-08 12:13 | -25.68801 | 166.39376 | 27999 ft | 447 kts | 54° |
| 2026-05-08 12:13 | -25.66975 | 166.42165 | 27997 ft | 447 kts | 54° |
| 2026-05-08 12:13 | -25.65169 | 166.44923 | 28000 ft | 447 kts | 54° |
| 2026-05-08 12:14 | -25.63342 | 166.47711 | 27995 ft | 447 kts | 54° |
| 2026-05-08 12:14 | -25.61513 | 166.50499 | 27999 ft | 447 kts | 54° |
| 2026-05-08 12:14 | -25.59683 | 166.53290 | 27999 ft | 447 kts | 54° |
| 2026-05-08 12:14 | -25.57855 | 166.56074 | 28001 ft | 447 kts | 54° |
| 2026-05-08 12:15 | -25.56026 | 166.58858 | 27999 ft | 447 kts | 54° |
| 2026-05-08 12:15 | -25.54198 | 166.61640 | 28001 ft | 447 kts | 54° |
| 2026-05-08 12:15 | -25.52365 | 166.64426 | 28000 ft | 447 kts | 54° |
| 2026-05-08 12:15 | -25.50536 | 166.67206 | 28000 ft | 447 kts | 53° |
| 2026-05-08 12:16 | -25.48705 | 166.69986 | 28000 ft | 447 kts | 53° |
| 2026-05-08 12:16 | -25.46874 | 166.72766 | 28000 ft | 447 kts | 53° |
| 2026-05-08 12:16 | -25.43210 | 166.78321 | 27998 ft | 447 kts | 53° |
| 2026-05-08 12:17 | -25.39542 | 166.83878 | 27999 ft | 447 kts | 53° |
| 2026-05-08 12:17 | -25.35874 | 166.89427 | 27997 ft | 447 kts | 53° |
| 2026-05-08 12:18 | -25.34040 | 166.92199 | 28000 ft | 447 kts | 53° |
| 2026-05-08 12:18 | -25.32201 | 166.94978 | 28003 ft | 447 kts | 53° |
| 2026-05-08 12:18 | -25.30366 | 166.97747 | 28000 ft | 447 kts | 53° |
| 2026-05-08 12:18 | -25.28530 | 167.00518 | 28002 ft | 447 kts | 53° |
| 2026-05-08 12:19 | -25.24880 | 167.06021 | 28442 ft | 450 kts | 53° |
| 2026-05-08 12:19 | -25.23022 | 167.08820 | 29035 ft | 453 kts | 53° |
| 2026-05-08 12:19 | -25.21154 | 167.11632 | 29613 ft | 456 kts | 53° |
| 2026-05-08 12:20 | -25.19266 | 167.14472 | 30137 ft | 459 kts | 53° |
| 2026-05-08 12:20 | -25.17368 | 167.17326 | 30634 ft | 463 kts | 53° |
| 2026-05-08 12:20 | -25.15457 | 167.20199 | 31117 ft | 466 kts | 53° |
| 2026-05-08 12:20 | -25.13527 | 167.23097 | 31587 ft | 470 kts | 53° |
| 2026-05-08 12:21 | -25.11585 | 167.26012 | 32019 ft | 473 kts | 53° |
| 2026-05-08 12:21 | -25.09630 | 167.28944 | 32436 ft | 476 kts | 53° |
| 2026-05-08 12:21 | -25.07660 | 167.31898 | 32844 ft | 479 kts | 53° |
| 2026-05-08 12:21 | -25.05679 | 167.34865 | 33224 ft | 482 kts | 53° |
| 2026-05-08 12:22 | -25.03684 | 167.37852 | 33598 ft | 485 kts | 53° |
| 2026-05-08 12:22 | -25.01672 | 167.40862 | 33958 ft | 488 kts | 53° |
| 2026-05-08 12:22 | -24.99654 | 167.43879 | 34287 ft | 491 kts | 53° |
| 2026-05-08 12:22 | -24.97625 | 167.46911 | 34652 ft | 492 kts | 53° |
| 2026-05-08 12:23 | -24.95595 | 167.49942 | 35127 ft | 491 kts | 53° |
| 2026-05-08 12:23 | -24.93570 | 167.52965 | 35596 ft | 489 kts | 53° |
| 2026-05-08 12:23 | -24.91554 | 167.55973 | 36018 ft | 488 kts | 53° |
| 2026-05-08 12:23 | -24.89535 | 167.58982 | 36413 ft | 488 kts | 53° |
| 2026-05-08 12:24 | -24.87517 | 167.61988 | 36775 ft | 488 kts | 53° |
| 2026-05-08 12:24 | -24.85497 | 167.64995 | 37122 ft | 488 kts | 53° |
| 2026-05-08 12:24 | -24.83478 | 167.67999 | 37463 ft | 488 kts | 53° |
| 2026-05-08 12:24 | -24.81484 | 167.70964 | 37779 ft | 488 kts | 53° |
| 2026-05-08 12:25 | -24.79464 | 167.73967 | 38100 ft | 488 kts | 53° |
| 2026-05-08 12:25 | -24.77444 | 167.76969 | 38415 ft | 488 kts | 53° |
| 2026-05-08 12:25 | -24.75421 | 167.79972 | 38708 ft | 488 kts | 53° |
| 2026-05-08 12:25 | -24.73397 | 167.82971 | 38989 ft | 488 kts | 53° |
| 2026-05-08 12:26 | -24.71368 | 167.85975 | 39270 ft | 488 kts | 53° |
| 2026-05-08 12:26 | -24.69345 | 167.88968 | 39561 ft | 488 kts | 53° |
| 2026-05-08 12:26 | -24.67317 | 167.91968 | 39819 ft | 488 kts | 53° |
| 2026-05-08 12:26 | -24.65289 | 167.94966 | 40060 ft | 488 kts | 53° |
| 2026-05-08 12:27 | -24.63263 | 167.97960 | 40315 ft | 489 kts | 53° |
| 2026-05-08 12:27 | -24.61233 | 168.00958 | 40567 ft | 489 kts | 53° |
| 2026-05-08 12:27 | -24.59206 | 168.03951 | 40800 ft | 489 kts | 53° |
| 2026-05-08 12:27 | -24.57173 | 168.06949 | 40975 ft | 490 kts | 53° |
| 2026-05-08 12:28 | -24.53103 | 168.12947 | 41000 ft | 489 kts | 53° |
| 2026-05-08 12:28 | -24.49036 | 168.18935 | 41003 ft | 489 kts | 53° |
| 2026-05-08 12:29 | -24.44961 | 168.24926 | 41002 ft | 489 kts | 53° |
| 2026-05-08 12:29 | -24.40886 | 168.30909 | 40998 ft | 489 kts | 53° |
| 2026-05-08 12:30 | -24.36810 | 168.36888 | 41002 ft | 489 kts | 53° |
| 2026-05-08 12:30 | -24.32729 | 168.42865 | 41000 ft | 489 kts | 53° |
| 2026-05-08 12:31 | -24.28674 | 168.48798 | 41001 ft | 489 kts | 53° |
| 2026-05-08 12:31 | -24.24589 | 168.54767 | 40998 ft | 489 kts | 53° |
| 2026-05-08 12:32 | -24.20498 | 168.60738 | 41000 ft | 489 kts | 53° |
| 2026-05-08 12:32 | -24.16406 | 168.66702 | 41001 ft | 489 kts | 53° |
| 2026-05-08 12:33 | -24.12308 | 168.72669 | 41001 ft | 489 kts | 53° |
| 2026-05-08 12:33 | -24.08216 | 168.78620 | 41001 ft | 489 kts | 53° |
| 2026-05-08 12:34 | -24.04147 | 168.84531 | 40998 ft | 489 kts | 53° |
| 2026-05-08 12:34 | -24.00092 | 168.90413 | 41001 ft | 489 kts | 53° |
| 2026-05-08 12:35 | -23.95991 | 168.96355 | 40999 ft | 489 kts | 53° |
| 2026-05-08 12:35 | -23.91888 | 169.02294 | 41000 ft | 489 kts | 53° |
| 2026-05-08 12:36 | -23.87777 | 169.08236 | 40998 ft | 489 kts | 53° |
| 2026-05-08 12:36 | -23.83668 | 169.14169 | 41003 ft | 489 kts | 53° |
| 2026-05-08 12:37 | -23.79585 | 169.20057 | 41000 ft | 489 kts | 52° |
| 2026-05-08 12:37 | -23.75471 | 169.25984 | 41001 ft | 489 kts | 52° |
| 2026-05-08 12:38 | -23.71362 | 169.31895 | 41000 ft | 489 kts | 52° |
| 2026-05-08 12:38 | -23.67240 | 169.37820 | 40999 ft | 489 kts | 52° |
| 2026-05-08 12:39 | -23.63119 | 169.43735 | 41000 ft | 489 kts | 52° |
| 2026-05-08 12:39 | -23.59000 | 169.49639 | 41000 ft | 489 kts | 52° |
| 2026-05-08 12:40 | -23.54879 | 169.55541 | 40998 ft | 489 kts | 52° |
| 2026-05-08 12:40 | -23.50748 | 169.61449 | 41002 ft | 489 kts | 52° |
| 2026-05-08 12:41 | -23.46651 | 169.67302 | 40998 ft | 489 kts | 52° |
| 2026-05-08 12:41 | -23.42539 | 169.73171 | 41001 ft | 489 kts | 52° |
| 2026-05-08 12:42 | -23.38403 | 169.79066 | 40997 ft | 489 kts | 52° |
| 2026-05-08 12:42 | -23.34268 | 169.84953 | 41001 ft | 489 kts | 52° |
| 2026-05-08 12:43 | -23.30128 | 169.90840 | 41001 ft | 489 kts | 52° |
| 2026-05-08 12:43 | -23.25988 | 169.96721 | 41003 ft | 489 kts | 52° |
| 2026-05-08 12:44 | -23.21871 | 170.02562 | 40999 ft | 489 kts | 52° |
| 2026-05-08 12:44 | -23.17725 | 170.08438 | 41002 ft | 489 kts | 52° |
| 2026-05-08 12:45 | -23.13577 | 170.14310 | 40998 ft | 489 kts | 52° |
| 2026-05-08 12:45 | -23.09425 | 170.20181 | 40999 ft | 489 kts | 52° |
| 2026-05-08 12:46 | -23.05277 | 170.26040 | 41001 ft | 489 kts | 52° |
| 2026-05-08 12:46 | -23.01121 | 170.31902 | 41002 ft | 489 kts | 52° |
| 2026-05-08 12:47 | -22.96963 | 170.37762 | 40999 ft | 489 kts | 52° |
| 2026-05-08 12:47 | -22.92829 | 170.43580 | 41002 ft | 489 kts | 52° |
| 2026-05-08 12:48 | -22.88663 | 170.49437 | 40999 ft | 489 kts | 52° |
| 2026-05-08 12:48 | -22.84501 | 170.55283 | 40999 ft | 489 kts | 52° |
| 2026-05-08 12:49 | -22.80335 | 170.61127 | 41000 ft | 489 kts | 52° |
| 2026-05-08 12:49 | -22.76175 | 170.66956 | 41002 ft | 489 kts | 52° |
| 2026-05-08 12:50 | -22.72035 | 170.72751 | 40998 ft | 489 kts | 52° |
| 2026-05-08 12:50 | -22.67860 | 170.78587 | 41000 ft | 489 kts | 52° |
| 2026-05-08 12:51 | -22.61604 | 170.87323 | 40999 ft | 489 kts | 52° |
| 2026-05-08 12:52 | -22.57433 | 170.93137 | 40999 ft | 489 kts | 52° |
| 2026-05-08 12:52 | -22.51169 | 171.01860 | 40999 ft | 489 kts | 52° |
| 2026-05-08 12:53 | -22.46984 | 171.07678 | 41002 ft | 489 kts | 52° |
| 2026-05-08 12:53 | -22.42802 | 171.13486 | 40999 ft | 489 kts | 52° |
| 2026-05-08 12:54 | -22.38647 | 171.19250 | 40999 ft | 489 kts | 52° |
| 2026-05-08 12:54 | -22.34465 | 171.25046 | 41000 ft | 489 kts | 52° |
| 2026-05-08 12:55 | -22.30274 | 171.30848 | 41000 ft | 489 kts | 52° |
| 2026-05-08 12:55 | -22.26083 | 171.36644 | 41003 ft | 489 kts | 52° |
| 2026-05-08 12:56 | -22.21889 | 171.42437 | 41000 ft | 489 kts | 52° |
| 2026-05-08 12:56 | -22.17696 | 171.48222 | 40999 ft | 489 kts | 52° |
| 2026-05-08 12:57 | -22.13498 | 171.54008 | 41001 ft | 489 kts | 52° |
| 2026-05-08 12:57 | -22.09302 | 171.59787 | 40999 ft | 489 kts | 52° |
| 2026-05-08 12:58 | -22.05100 | 171.65568 | 41001 ft | 489 kts | 52° |
| 2026-05-08 12:58 | -22.01607 | 171.70361 | 41001 ft | 489 kts | 52° |
| 2026-05-08 12:59 | -21.97399 | 171.76130 | 41002 ft | 489 kts | 52° |
| 2026-05-08 12:59 | -21.93191 | 171.81897 | 40999 ft | 489 kts | 52° |
| 2026-05-08 13:00 | -21.88983 | 171.87657 | 40999 ft | 489 kts | 51° |
| 2026-05-08 13:00 | -21.84800 | 171.93378 | 41002 ft | 489 kts | 51° |
| 2026-05-08 13:01 | -21.80585 | 171.99136 | 41003 ft | 489 kts | 51° |
| 2026-05-08 13:01 | -21.76371 | 172.04887 | 41002 ft | 489 kts | 51° |
| 2026-05-08 13:02 | -21.72155 | 172.10634 | 41003 ft | 489 kts | 51° |
| 2026-05-08 13:02 | -21.67935 | 172.16381 | 41002 ft | 489 kts | 51° |
| 2026-05-08 13:03 | -21.63712 | 172.22126 | 41002 ft | 489 kts | 51° |
| 2026-05-08 13:03 | -21.59484 | 172.27871 | 41003 ft | 489 kts | 51° |
| 2026-05-08 13:04 | -21.55262 | 172.33602 | 40999 ft | 489 kts | 51° |
| 2026-05-08 13:04 | -21.51034 | 172.39336 | 41003 ft | 489 kts | 51° |
| 2026-05-08 13:05 | -21.46799 | 172.45072 | 40997 ft | 489 kts | 51° |
| 2026-05-08 13:05 | -21.42568 | 172.50798 | 41000 ft | 489 kts | 51° |
| 2026-05-08 13:06 | -21.38335 | 172.56520 | 41000 ft | 489 kts | 51° |
| 2026-05-08 13:06 | -21.34103 | 172.62236 | 41000 ft | 489 kts | 51° |
| 2026-05-08 13:07 | -21.29890 | 172.67919 | 41000 ft | 489 kts | 51° |
| 2026-05-08 13:07 | -21.25655 | 172.73626 | 41002 ft | 489 kts | 51° |
| 2026-05-08 13:08 | -21.21413 | 172.79337 | 40999 ft | 489 kts | 51° |
| 2026-05-08 13:08 | -21.17171 | 172.85042 | 41001 ft | 489 kts | 51° |
| 2026-05-08 13:09 | -21.12925 | 172.90746 | 41002 ft | 489 kts | 51° |
| 2026-05-08 13:09 | -21.08679 | 172.96445 | 41001 ft | 489 kts | 51° |
| 2026-05-08 13:10 | -21.04432 | 173.02139 | 41001 ft | 489 kts | 51° |
| 2026-05-08 13:10 | -21.00182 | 173.07831 | 40999 ft | 489 kts | 51° |
| 2026-05-08 13:11 | -20.95930 | 173.13520 | 41000 ft | 489 kts | 51° |
| 2026-05-08 13:11 | -20.91676 | 173.19207 | 40999 ft | 489 kts | 51° |
| 2026-05-08 13:12 | -20.87448 | 173.24853 | 41002 ft | 489 kts | 51° |
| 2026-05-08 13:12 | -20.83234 | 173.30474 | 41000 ft | 489 kts | 51° |
| 2026-05-08 13:13 | -20.78975 | 173.36150 | 40998 ft | 489 kts | 51° |
| 2026-05-08 13:13 | -20.74710 | 173.41828 | 41001 ft | 489 kts | 51° |
| 2026-05-08 13:14 | -20.70449 | 173.47495 | 40999 ft | 489 kts | 51° |
| 2026-05-08 13:14 | -20.66185 | 173.53161 | 41003 ft | 489 kts | 51° |
| 2026-05-08 13:15 | -20.61921 | 173.58821 | 40999 ft | 489 kts | 51° |
| 2026-05-08 13:15 | -20.57652 | 173.64481 | 40999 ft | 489 kts | 51° |
| 2026-05-08 13:16 | -20.53378 | 173.70143 | 40999 ft | 489 kts | 51° |
| 2026-05-08 13:16 | -20.49105 | 173.75798 | 40997 ft | 489 kts | 51° |
| 2026-05-08 13:17 | -20.44829 | 173.81451 | 41000 ft | 489 kts | 51° |
| 2026-05-08 13:17 | -20.40581 | 173.87063 | 41001 ft | 489 kts | 51° |
| 2026-05-08 13:18 | -20.36306 | 173.92703 | 40997 ft | 489 kts | 51° |
| 2026-05-08 13:18 | -20.32026 | 173.98346 | 41000 ft | 489 kts | 51° |
| 2026-05-08 13:19 | -20.27743 | 174.03987 | 41000 ft | 489 kts | 51° |
| 2026-05-08 13:19 | -20.23460 | 174.09621 | 40998 ft | 489 kts | 51° |
| 2026-05-08 13:20 | -20.19175 | 174.15253 | 41001 ft | 489 kts | 51° |
| 2026-05-08 13:20 | -20.14885 | 174.20887 | 41000 ft | 489 kts | 51° |
| 2026-05-08 13:21 | -20.10599 | 174.26510 | 41001 ft | 489 kts | 51° |
| 2026-05-08 13:21 | -20.06305 | 174.32137 | 40997 ft | 489 kts | 51° |
| 2026-05-08 13:22 | -20.02017 | 174.37751 | 41000 ft | 489 kts | 51° |
| 2026-05-08 13:22 | -19.97746 | 174.43338 | 41002 ft | 489 kts | 51° |
| 2026-05-08 13:23 | -19.93454 | 174.48947 | 40999 ft | 489 kts | 51° |
| 2026-05-08 13:23 | -19.89158 | 174.54556 | 41000 ft | 489 kts | 51° |
| 2026-05-08 13:24 | -19.84858 | 174.60165 | 41000 ft | 489 kts | 51° |
| 2026-05-08 13:24 | -19.80559 | 174.65767 | 41000 ft | 489 kts | 51° |
| 2026-05-08 13:25 | -19.76256 | 174.71368 | 40999 ft | 489 kts | 51° |
| 2026-05-08 13:25 | -19.71951 | 174.76968 | 41002 ft | 489 kts | 51° |
| 2026-05-08 13:26 | -19.67645 | 174.82563 | 40999 ft | 489 kts | 50° |
| 2026-05-08 13:26 | -19.63336 | 174.88158 | 40999 ft | 489 kts | 50° |
| 2026-05-08 13:27 | -19.59028 | 174.93745 | 40999 ft | 489 kts | 50° |
| 2026-05-08 13:27 | -19.54722 | 174.99324 | 40999 ft | 489 kts | 50° |
| 2026-05-08 13:28 | -19.50401 | 175.04918 | 41001 ft | 489 kts | 50° |
| 2026-05-08 13:28 | -19.46087 | 175.10498 | 40999 ft | 489 kts | 50° |
| 2026-05-08 13:29 | -19.41772 | 175.16073 | 40999 ft | 489 kts | 50° |
| 2026-05-08 13:29 | -19.37456 | 175.21645 | 41000 ft | 489 kts | 50° |
| 2026-05-08 13:30 | -19.33166 | 175.27179 | 40997 ft | 489 kts | 50° |
| 2026-05-08 13:30 | -19.28847 | 175.32745 | 41000 ft | 489 kts | 50° |
| 2026-05-08 13:31 | -19.24495 | 175.38352 | 41000 ft | 489 kts | 50° |
| 2026-05-08 13:31 | -19.20202 | 175.43873 | 40999 ft | 489 kts | 50° |
| 2026-05-08 13:32 | -19.15875 | 175.49432 | 41003 ft | 489 kts | 50° |
| 2026-05-08 13:32 | -19.11544 | 175.54992 | 40997 ft | 489 kts | 50° |
| 2026-05-08 13:33 | -19.07215 | 175.60545 | 40998 ft | 489 kts | 50° |
| 2026-05-08 13:33 | -19.02885 | 175.66095 | 40998 ft | 489 kts | 50° |
| 2026-05-08 13:34 | -18.98549 | 175.71647 | 40997 ft | 489 kts | 50° |
| 2026-05-08 13:34 | -18.94223 | 175.77183 | 40551 ft | 487 kts | 50° |
| 2026-05-08 13:35 | -18.92065 | 175.79942 | 39734 ft | 489 kts | 50° |
| 2026-05-08 13:35 | -18.89889 | 175.82722 | 38970 ft | 490 kts | 50° |
| 2026-05-08 13:35 | -18.87723 | 175.85489 | 38266 ft | 489 kts | 50° |
| 2026-05-08 13:35 | -18.85559 | 175.88252 | 37545 ft | 488 kts | 50° |
| 2026-05-08 13:36 | -18.83396 | 175.91012 | 36811 ft | 487 kts | 50° |
| 2026-05-08 13:36 | -18.81234 | 175.93770 | 36073 ft | 487 kts | 50° |
| 2026-05-08 13:36 | -18.79108 | 175.96482 | 35309 ft | 486 kts | 50° |
| 2026-05-08 13:36 | -18.76948 | 175.99235 | 34429 ft | 488 kts | 50° |
| 2026-05-08 13:37 | -18.74782 | 176.01994 | 33542 ft | 489 kts | 50° |
| 2026-05-08 13:37 | -18.72609 | 176.04762 | 32605 ft | 491 kts | 50° |
| 2026-05-08 13:37 | -18.70429 | 176.07538 | 31625 ft | 493 kts | 50° |
| 2026-05-08 13:37 | -18.68233 | 176.10328 | 30613 ft | 495 kts | 50° |
| 2026-05-08 13:38 | -18.66035 | 176.13119 | 29795 ft | 493 kts | 50° |
| 2026-05-08 13:38 | -18.63859 | 176.15880 | 29125 ft | 487 kts | 50° |
| 2026-05-08 13:38 | -18.61704 | 176.18615 | 28440 ft | 482 kts | 50° |
| 2026-05-08 13:38 | -18.59569 | 176.21323 | 27721 ft | 478 kts | 50° |
| 2026-05-08 13:39 | -18.57457 | 176.24002 | 27041 ft | 473 kts | 50° |
| 2026-05-08 13:39 | -18.55363 | 176.26656 | 26358 ft | 468 kts | 50° |
| 2026-05-08 13:39 | -18.53293 | 176.29280 | 25674 ft | 463 kts | 50° |
| 2026-05-08 13:39 | -18.51243 | 176.31876 | 24999 ft | 458 kts | 50° |
| 2026-05-08 13:40 | -18.49213 | 176.34446 | 24335 ft | 453 kts | 50° |
| 2026-05-08 13:40 | -18.47207 | 176.36985 | 23671 ft | 448 kts | 50° |
| 2026-05-08 13:40 | -18.45220 | 176.39499 | 23003 ft | 443 kts | 50° |
| 2026-05-08 13:40 | -18.43261 | 176.41976 | 22347 ft | 438 kts | 50° |
| 2026-05-08 13:41 | -18.41327 | 176.44421 | 21675 ft | 432 kts | 50° |
| 2026-05-08 13:41 | -18.39411 | 176.46842 | 21010 ft | 427 kts | 50° |
| 2026-05-08 13:41 | -18.37544 | 176.49200 | 20355 ft | 423 kts | 50° |
| 2026-05-08 13:41 | -18.35648 | 176.51594 | 19680 ft | 418 kts | 50° |
| 2026-05-08 13:42 | -18.33818 | 176.53904 | 19018 ft | 413 kts | 50° |
| 2026-05-08 13:42 | -18.31989 | 176.56213 | 18354 ft | 409 kts | 50° |
| 2026-05-08 13:42 | -18.30172 | 176.58504 | 17684 ft | 405 kts | 50° |
| 2026-05-08 13:42 | -18.28381 | 176.60762 | 17018 ft | 400 kts | 50° |
| 2026-05-08 13:43 | -18.26606 | 176.63000 | 16369 ft | 396 kts | 50° |
| 2026-05-08 13:43 | -18.24849 | 176.65214 | 15692 ft | 392 kts | 50° |
| 2026-05-08 13:43 | -18.23109 | 176.67406 | 15024 ft | 387 kts | 50° |
| 2026-05-08 13:43 | -18.21396 | 176.69562 | 14376 ft | 383 kts | 50° |
| 2026-05-08 13:44 | -18.19693 | 176.71706 | 13712 ft | 379 kts | 50° |
| 2026-05-08 13:44 | -18.18014 | 176.73818 | 13071 ft | 374 kts | 50° |
| 2026-05-08 13:44 | -18.16355 | 176.75905 | 12432 ft | 369 kts | 50° |
| 2026-05-08 13:44 | -18.14736 | 176.77941 | 11797 ft | 365 kts | 50° |
| 2026-05-08 13:45 | -18.13116 | 176.79978 | 11222 ft | 359 kts | 50° |
| 2026-05-08 13:45 | -18.11554 | 176.81941 | 11066 ft | 341 kts | 50° |
| 2026-05-08 13:45 | -18.10138 | 176.83863 | 10917 ft | 324 kts | 57° |
| 2026-05-08 13:45 | -18.09195 | 176.85942 | 10799 ft | 308 kts | 70° |
| 2026-05-08 13:46 | -18.08504 | 176.88020 | 10651 ft | 294 kts | 71° |
| 2026-05-08 13:46 | -18.07867 | 176.90017 | 10527 ft | 281 kts | 71° |
| 2026-05-08 13:46 | -18.07256 | 176.91929 | 10395 ft | 273 kts | 71° |
| 2026-05-08 13:46 | -18.06856 | 176.93176 | 10276 ft | 272 kts | 71° |
| 2026-05-08 13:47 | -18.06250 | 176.95055 | 10010 ft | 271 kts | 71° |
| 2026-05-08 13:47 | -18.05634 | 176.96960 | 9760 ft | 283 kts | 71° |
| 2026-05-08 13:47 | -18.04993 | 176.98942 | 9653 ft | 286 kts | 71° |
| 2026-05-08 13:47 | -18.04353 | 177.00914 | 9151 ft | 287 kts | 71° |
| 2026-05-08 13:48 | -18.03709 | 177.02898 | 8693 ft | 286 kts | 71° |
| 2026-05-08 13:48 | -18.03069 | 177.04869 | 8341 ft | 284 kts | 71° |
| 2026-05-08 13:48 | -18.02432 | 177.06831 | 7997 ft | 283 kts | 71° |
| 2026-05-08 13:48 | -18.01796 | 177.08786 | 7664 ft | 282 kts | 71° |
| 2026-05-08 13:49 | -18.01164 | 177.10732 | 7329 ft | 280 kts | 71° |
| 2026-05-08 13:49 | -18.00535 | 177.12665 | 6992 ft | 279 kts | 71° |
| 2026-05-08 13:49 | -17.99909 | 177.14590 | 6673 ft | 278 kts | 71° |
| 2026-05-08 13:49 | -17.99285 | 177.16504 | 6339 ft | 276 kts | 71° |
| 2026-05-08 13:50 | -17.98673 | 177.18385 | 6014 ft | 275 kts | 71° |
| 2026-05-08 13:50 | -17.98056 | 177.20280 | 5673 ft | 274 kts | 71° |
| 2026-05-08 13:50 | -17.97439 | 177.22171 | 5357 ft | 272 kts | 71° |
| 2026-05-08 13:50 | -17.96825 | 177.24054 | 5025 ft | 271 kts | 71° |
| 2026-05-08 13:51 | -17.96217 | 177.25922 | 4707 ft | 270 kts | 71° |
| 2026-05-08 13:51 | -17.95612 | 177.27746 | 4519 ft | 269 kts | 69° |
| 2026-05-08 13:51 | -17.94873 | 177.29551 | 4500 ft | 269 kts | 65° |
| 2026-05-08 13:51 | -17.94071 | 177.31328 | 4499 ft | 269 kts | 64° |
| 2026-05-08 13:52 | -17.93264 | 177.33098 | 4500 ft | 268 kts | 64° |
| 2026-05-08 13:52 | -17.92485 | 177.34807 | 4492 ft | 252 kts | 64° |
| 2026-05-08 13:52 | -17.91735 | 177.36456 | 4499 ft | 249 kts | 64° |
| 2026-05-08 13:52 | -17.90992 | 177.38090 | 4497 ft | 248 kts | 64° |
| 2026-05-08 13:53 | -17.90246 | 177.39729 | 4501 ft | 248 kts | 64° |
| 2026-05-08 13:53 | -17.89501 | 177.41367 | 4502 ft | 248 kts | 64° |
| 2026-05-08 13:53 | -17.88758 | 177.43003 | 4499 ft | 249 kts | 64° |
| 2026-05-08 13:53 | -17.88013 | 177.44640 | 4500 ft | 249 kts | 64° |
| 2026-05-08 13:54 | -17.87269 | 177.46277 | 4499 ft | 249 kts | 64° |
| 2026-05-08 13:54 | -17.86533 | 177.47896 | 4500 ft | 249 kts | 64° |
| 2026-05-08 13:54 | -17.85580 | 177.49377 | 4294 ft | 244 kts | 43° |
| 2026-05-08 13:54 | -17.84262 | 177.50499 | 3866 ft | 243 kts | 36° |
| 2026-05-08 13:55 | -17.82947 | 177.51518 | 3572 ft | 227 kts | 36° |
| 2026-05-08 13:55 | -17.81712 | 177.52479 | 3378 ft | 215 kts | 36° |
| 2026-05-08 13:55 | -17.79194 | 177.53829 | 3359 ft | 200 kts | 14° |
| 2026-05-08 13:56 | -17.77832 | 177.54019 | 3348 ft | 191 kts | 360° |
| 2026-05-08 13:56 | -17.76572 | 177.53878 | 3331 ft | 174 kts | 347° |
| 2026-05-08 13:56 | -17.75451 | 177.53488 | 3360 ft | 168 kts | 335° |
| 2026-05-08 13:56 | -17.74439 | 177.52874 | 3356 ft | 168 kts | 323° |
| 2026-05-08 13:57 | -17.73567 | 177.52064 | 3176 ft | 166 kts | 313° |
| 2026-05-08 13:57 | -17.72875 | 177.51140 | 2949 ft | 156 kts | 303° |
| 2026-05-08 13:57 | -17.72357 | 177.50146 | 2577 ft | 158 kts | 292° |
| 2026-05-08 13:57 | -17.72070 | 177.49017 | 2151 ft | 162 kts | 278° |
| 2026-05-08 13:58 | -17.72057 | 177.47843 | 1764 ft | 158 kts | 259° |
| 2026-05-08 13:58 | -17.72583 | 177.46891 | 1407 ft | 155 kts | 230° |
| 2026-05-08 13:58 | -17.73342 | 177.46067 | 923 ft | 160 kts | 220° |
| 2026-05-08 13:58 | -17.74233 | 177.45362 | 424 ft | 159 kts | 217° |
| 2026-05-08 13:59 | -17.75090 | 177.44676 | 103 ft | 149 kts | 219° |
| 2026-05-08 13:59 | -17.75843 | 177.44045 | 120 ft | 129 kts | 220° |
| 2026-05-08 13:59 | -17.76685 | 177.43337 | 585 ft | 180 kts | 218° |
| 2026-05-08 13:59 | -17.77719 | 177.42456 | 1155 ft | 202 kts | 224° |
| 2026-05-08 14:00 | -17.78483 | 177.41205 | 1767 ft | 204 kts | 252° |
| 2026-05-08 14:00 | -17.78492 | 177.39743 | 2269 ft | 204 kts | 286° |
| 2026-05-08 14:00 | -17.77733 | 177.38488 | 2029 ft | 206 kts | 319° |
| 2026-05-08 14:00 | -17.76445 | 177.37819 | 1530 ft | 212 kts | 346° |
| 2026-05-08 14:01 | -17.74948 | 177.37801 | 1153 ft | 220 kts | 9° |
| 2026-05-08 14:01 | -17.73404 | 177.38187 | 1479 ft | 238 kts | 22° |
| 2026-05-08 14:01 | -17.72048 | 177.39040 | 1864 ft | 212 kts | 36° |
| 2026-05-08 14:01 | -17.70941 | 177.39921 | 1991 ft | 189 kts | 37° |
| 2026-05-08 14:02 | -17.69961 | 177.40726 | 2007 ft | 170 kts | 38° |
| 2026-05-08 14:02 | -17.69041 | 177.41488 | 1853 ft | 168 kts | 37° |
| 2026-05-08 14:02 | -17.68426 | 177.42412 | 1834 ft | 146 kts | 75° |
| 2026-05-08 14:02 | -17.68537 | 177.43374 | 1812 ft | 128 kts | 119° |
| 2026-05-08 14:03 | -17.69190 | 177.43952 | 1745 ft | 137 kts | 159° |
| 2026-05-08 14:03 | -17.70224 | 177.44463 | 1626 ft | 186 kts | 154° |
| 2026-05-08 14:03 | -17.71332 | 177.45055 | 1345 ft | 172 kts | 153° |
| 2026-05-08 14:03 | -17.72409 | 177.45460 | 1060 ft | 159 kts | 172° |
| 2026-05-08 14:04 | -17.73501 | 177.45427 | 716 ft | 159 kts | 190° |
| 2026-05-08 14:04 | -17.74550 | 177.45063 | 327 ft | 159 kts | 208° |
| 2026-05-08 14:04 | -17.75365 | 177.44449 | 53 ft | 150 kts | 220° |
| 2026-05-08 14:04 | -17.76094 | 177.43856 | 48 ft | 104 kts | 218° |
| 2026-05-08 14:05 | -17.76431 | 177.43586 | 49 ft | 28 kts | 218° |
| 2026-05-08 14:05 | -17.76583 | 177.43464 | 48 ft | 30 kts | 217° |
| 2026-05-08 14:05 | -17.76757 | 177.43325 | 47 ft | 33 kts | 217° |
| 2026-05-08 14:05 | -17.76938 | 177.43174 | 49 ft | 34 kts | 217° |
| 2026-05-08 14:06 | -17.77125 | 177.43026 | 51 ft | 21 kts | 217° |
| 2026-05-08 14:06 | -17.77211 | 177.42951 | 47 ft | 17 kts | 231° |
| 2026-05-08 14:06 | -17.77277 | 177.42854 | 49 ft | 14 kts | 191° |
| 2026-05-08 14:06 | -17.77302 | 177.42885 | 46 ft | 2 kts | 63° |
| 2026-05-08 14:07 | -17.77207 | 177.42961 | 49 ft | 25 kts | 37° |
| 2026-05-08 14:07 | -17.77044 | 177.43091 | 46 ft | 32 kts | 37° |
| 2026-05-08 14:07 | -17.76860 | 177.43237 | 52 ft | 34 kts | 38° |
| 2026-05-08 14:07 | -17.76666 | 177.43394 | 48 ft | 36 kts | 37° |
| 2026-05-08 14:08 | -17.76460 | 177.43561 | 46 ft | 38 kts | 37° |
| 2026-05-08 14:08 | -17.76244 | 177.43735 | 48 ft | 40 kts | 37° |
| 2026-05-08 14:08 | -17.76018 | 177.43917 | 49 ft | 42 kts | 37° |
| 2026-05-08 14:08 | -17.75785 | 177.44105 | 47 ft | 43 kts | 37° |
| 2026-05-08 14:09 | -17.75542 | 177.44299 | 49 ft | 44 kts | 37° |
| 2026-05-08 14:09 | -17.75295 | 177.44498 | 52 ft | 45 kts | 37° |
| 2026-05-08 14:09 | -17.75144 | 177.44620 | 50 ft | 14 kts | 40° |
| 2026-05-08 14:09 | -17.75119 | 177.44729 | 48 ft | 24 kts | 103° |
| 2026-05-08 14:10 | -17.75149 | 177.44857 | 50 ft | 8 kts | 104° |
| 2026-05-08 14:10 | -17.75165 | 177.44923 | 49 ft | 12 kts | 105° |
| 2026-05-08 14:10 | -17.75171 | 177.44949 | 52 ft | 1 kts | 104° |
| 2026-05-08 14:10 | -17.75178 | 177.44976 | 49 ft | 2 kts | 104° |
| 2026-05-08 14:11 | -17.75183 | 177.44996 | 49 ft | 2 kts | 104° |
| 2026-05-08 14:11 | -17.75185 | 177.45006 | 49 ft | 1 kts | 104° |